createdAt,value
2017-07-12T00:00:44.777Z,941.3
2017-07-12T00:01:52.864Z,941.2
2017-07-12T00:03:01.010Z,941.2
2017-07-12T00:04:09.041Z,941.2
2017-07-12T00:05:17.192Z,941.3
2017-07-12T00:06:25.219Z,941.2
2017-07-12T00:07:33.307Z,941.2
2017-07-12T00:08:41.402Z,941.1
2017-07-12T00:09:49.652Z,941.1
2017-07-12T00:10:57.699Z,941.1
2017-07-12T00:12:05.666Z,941.1
2017-07-12T00:13:13.755Z,941.1
2017-07-12T00:14:21.854Z,941.1
2017-07-12T00:15:29.972Z,941.2
2017-07-12T00:16:38.119Z,941.2
2017-07-12T00:17:46.116Z,941.1
2017-07-12T00:18:54.321Z,941.1
2017-07-12T00:20:02.290Z,941.1
2017-07-12T00:21:10.381Z,941.1
2017-07-12T00:22:18.589Z,941.1
2017-07-12T00:23:26.555Z,941.1
2017-07-12T00:24:34.644Z,941.0
2017-07-12T00:25:42.735Z,941.0
2017-07-12T00:26:50.948Z,940.9
2017-07-12T00:27:58.966Z,940.9
2017-07-12T00:29:06.999Z,940.9
2017-07-12T00:30:15.086Z,940.9
2017-07-12T00:31:23.176Z,940.9
2017-07-12T00:32:31.264Z,941.0
2017-07-12T00:33:39.447Z,941.0
2017-07-12T00:34:47.561Z,941.0
2017-07-12T00:35:55.528Z,941.0
2017-07-12T00:37:03.615Z,941.0
2017-07-12T00:38:11.703Z,941.0
2017-07-12T00:39:19.845Z,940.9
2017-07-12T00:40:27.878Z,940.9
2017-07-12T00:41:35.973Z,941.0
2017-07-12T00:42:44.063Z,940.9
2017-07-12T00:43:52.238Z,940.9
2017-07-12T00:45:00.361Z,941.0
2017-07-12T00:46:08.330Z,941.0
2017-07-12T00:47:16.419Z,941.0
2017-07-12T00:48:24.506Z,941.0
2017-07-12T00:49:32.654Z,941.0
2017-07-12T00:50:40.850Z,941.0
2017-07-12T00:51:48.773Z,941.0
2017-07-12T00:52:56.862Z,941.0
2017-07-12T00:54:04.951Z,941.0
2017-07-12T00:55:13.045Z,941.0
2017-07-12T00:56:21.191Z,941.0
2017-07-12T00:57:29.223Z,940.9
2017-07-12T00:58:37.312Z,940.9
2017-07-12T00:59:45.407Z,941.0
2017-07-12T01:00:53.617Z,941.0
2017-07-12T01:02:01.699Z,941.0
2017-07-12T01:03:09.667Z,941.0
2017-07-12T01:04:17.755Z,941.0
2017-07-12T01:05:25.841Z,941.0
2017-07-12T01:06:33.995Z,941.0
2017-07-12T01:07:42.090Z,940.9
2017-07-12T01:08:50.108Z,940.9
2017-07-12T01:09:58.196Z,940.9
2017-07-12T01:11:06.293Z,940.9
2017-07-12T01:12:14.387Z,940.9
2017-07-12T01:13:22.596Z,940.9
2017-07-12T01:14:30.564Z,940.8
2017-07-12T01:15:38.653Z,940.7
2017-07-12T01:16:46.743Z,940.8
2017-07-12T01:17:54.930Z,940.8
2017-07-12T01:19:02.976Z,940.8
2017-07-12T01:20:11.008Z,940.7
2017-07-12T01:21:19.095Z,940.7
2017-07-12T01:22:27.304Z,940.7
2017-07-12T01:23:35.273Z,940.7
2017-07-12T01:24:43.424Z,940.7
2017-07-12T01:25:51.457Z,940.8
2017-07-12T01:26:59.544Z,940.7
2017-07-12T01:28:07.779Z,940.7
2017-07-12T01:29:15.862Z,940.8
2017-07-12T01:30:23.866Z,940.7
2017-07-12T01:31:31.901Z,940.7
2017-07-12T01:32:39.988Z,940.7
2017-07-12T01:33:48.079Z,940.6
2017-07-12T01:34:56.165Z,940.7
2017-07-12T01:36:04.308Z,940.6
2017-07-12T01:37:12.347Z,940.6
2017-07-12T01:38:20.485Z,940.6
2017-07-12T01:39:28.518Z,940.6
2017-07-12T01:40:36.605Z,940.6
2017-07-12T01:41:44.816Z,940.6
2017-07-12T01:42:52.783Z,940.6
2017-07-12T01:44:00.871Z,940.5
2017-07-12T01:45:09.055Z,940.6
2017-07-12T01:46:17.142Z,940.5
2017-07-12T01:47:25.193Z,940.5
2017-07-12T01:48:33.225Z,940.5
2017-07-12T01:49:41.314Z,940.4
2017-07-12T01:50:49.403Z,940.5
2017-07-12T01:51:57.492Z,940.5
2017-07-12T01:53:05.635Z,940.5
2017-07-12T01:54:13.789Z,940.5
2017-07-12T01:55:21.757Z,940.5
2017-07-12T01:56:30.013Z,940.5
2017-07-12T01:57:37.937Z,940.5
2017-07-12T01:58:46.094Z,940.4
2017-07-12T01:59:54.128Z,940.4
2017-07-12T02:01:02.215Z,940.5
2017-07-12T02:02:10.304Z,940.5
2017-07-12T02:03:18.452Z,940.5
2017-07-12T02:04:26.538Z,940.5
2017-07-12T02:05:34.575Z,940.5
2017-07-12T02:06:42.664Z,940.5
2017-07-12T02:07:50.754Z,940.5
2017-07-12T02:08:58.849Z,940.5
2017-07-12T02:10:06.989Z,940.5
2017-07-12T02:11:15.021Z,940.5
2017-07-12T02:12:23.108Z,940.5
2017-07-12T02:13:31.196Z,940.5
2017-07-12T02:14:39.287Z,940.5
2017-07-12T02:15:47.437Z,940.5
2017-07-12T02:16:55.470Z,940.5
2017-07-12T02:18:03.559Z,940.5
2017-07-12T02:19:11.733Z,940.6
2017-07-12T02:20:19.820Z,940.5
2017-07-12T02:21:27.943Z,940.5
2017-07-12T02:22:35.911Z,940.5
2017-07-12T02:23:44.001Z,940.5
2017-07-12T02:24:52.089Z,940.4
2017-07-12T02:26:00.234Z,940.4
2017-07-12T02:27:08.322Z,940.4
2017-07-12T02:28:16.354Z,940.4
2017-07-12T02:29:24.445Z,940.4
2017-07-12T02:30:32.666Z,940.5
2017-07-12T02:31:40.618Z,940.5
2017-07-12T02:32:48.833Z,940.5
2017-07-12T02:33:56.800Z,940.5
2017-07-12T02:35:04.889Z,940.4
2017-07-12T02:36:12.991Z,940.4
2017-07-12T02:37:21.068Z,940.4
2017-07-12T02:38:29.213Z,940.4
2017-07-12T02:39:37.244Z,940.4
2017-07-12T02:40:45.332Z,940.4
2017-07-12T02:41:53.477Z,940.4
2017-07-12T02:43:01.508Z,940.3
2017-07-12T02:44:09.718Z,940.4
2017-07-12T02:45:17.686Z,940.4
2017-07-12T02:46:25.776Z,940.4
2017-07-12T02:47:33.997Z,940.4
2017-07-12T02:48:41.952Z,940.4
2017-07-12T02:49:50.096Z,940.4
2017-07-12T02:50:58.128Z,940.4
2017-07-12T02:52:06.222Z,940.4
2017-07-12T02:53:14.310Z,940.4
2017-07-12T02:54:22.401Z,940.4
2017-07-12T02:55:30.544Z,940.4
2017-07-12T02:56:38.576Z,940.4
2017-07-12T02:57:46.891Z,940.4
2017-07-12T02:58:54.943Z,940.4
2017-07-12T03:00:02.839Z,940.3
2017-07-12T03:01:11.049Z,940.3
2017-07-12T03:02:19.018Z,940.3
2017-07-12T03:03:27.106Z,940.3
2017-07-12T03:04:35.197Z,940.3
2017-07-12T03:05:43.285Z,940.3
2017-07-12T03:06:51.428Z,940.3
2017-07-12T03:07:59.462Z,940.3
2017-07-12T03:09:07.548Z,940.3
2017-07-12T03:10:15.638Z,940.3
2017-07-12T03:11:23.727Z,940.2
2017-07-12T03:12:32.550Z,940.2
2017-07-12T03:13:40.024Z,940.3
2017-07-12T03:14:48.140Z,940.2
2017-07-12T03:15:56.163Z,940.2
2017-07-12T03:17:04.167Z,940.2
2017-07-12T03:18:12.312Z,940.2
2017-07-12T03:19:20.344Z,940.3
2017-07-12T03:20:28.433Z,940.3
2017-07-12T03:21:36.556Z,940.3
2017-07-12T03:22:44.609Z,940.2
2017-07-12T03:23:52.752Z,940.2
2017-07-12T03:25:00.788Z,940.3
2017-07-12T03:26:08.876Z,940.2
2017-07-12T03:27:16.964Z,940.3
2017-07-12T03:28:25.051Z,940.3
2017-07-12T03:29:33.260Z,940.3
2017-07-12T03:30:41.228Z,940.3
2017-07-12T03:31:49.441Z,940.2
2017-07-12T03:32:57.526Z,940.3
2017-07-12T03:34:05.493Z,940.3
2017-07-12T03:35:13.638Z,940.3
2017-07-12T03:37:29.759Z,940.3
2017-07-12T03:38:37.845Z,940.2
2017-07-12T03:39:45.935Z,940.3
2017-07-12T03:40:54.147Z,940.2
2017-07-12T03:42:02.113Z,940.3
2017-07-12T03:43:10.362Z,940.2
2017-07-12T03:44:18.291Z,940.1
2017-07-12T03:45:26.436Z,940.1
2017-07-12T03:46:34.524Z,940.2
2017-07-12T03:47:42.554Z,940.2
2017-07-12T03:48:50.674Z,940.2
2017-07-12T03:49:58.770Z,940.2
2017-07-12T03:51:06.819Z,940.1
2017-07-12T03:52:14.966Z,940.1
2017-07-12T03:53:23.018Z,940.1
2017-07-12T03:54:31.677Z,940.1
2017-07-12T03:55:39.171Z,940.1
2017-07-12T03:56:47.261Z,940.1
2017-07-12T03:57:55.618Z,940.1
2017-07-12T03:59:03.436Z,940.2
2017-07-12T04:00:11.772Z,940.2
2017-07-12T04:01:19.670Z,940.1
2017-07-12T04:02:27.698Z,940.1
2017-07-12T04:03:35.845Z,940.1
2017-07-12T04:04:43.877Z,940.1
2017-07-12T04:05:51.965Z,940.1
2017-07-12T04:07:00.065Z,940.1
2017-07-12T04:08:08.140Z,940.1
2017-07-12T04:09:16.285Z,940.1
2017-07-12T04:10:24.393Z,940.1
2017-07-12T04:11:32.666Z,940.1
2017-07-12T04:12:41.038Z,940.1
2017-07-12T04:13:48.927Z,940.1
2017-07-12T04:14:56.727Z,940.1
2017-07-12T04:16:04.757Z,940.1
2017-07-12T04:17:13.045Z,940.1
2017-07-12T04:18:20.933Z,940.1
2017-07-12T04:19:29.022Z,940.0
2017-07-12T04:20:37.540Z,940.0
2017-07-12T04:21:45.198Z,940.0
2017-07-12T04:22:53.286Z,940.0
2017-07-12T04:24:01.376Z,940.0
2017-07-12T04:25:09.532Z,940.0
2017-07-12T04:26:17.671Z,940.0
2017-07-12T04:27:25.742Z,940.1
2017-07-12T04:28:33.921Z,940.1
2017-07-12T04:29:41.815Z,940.1
2017-07-12T04:30:49.903Z,940.1
2017-07-12T04:31:58.048Z,940.1
2017-07-12T04:33:06.142Z,940.1
2017-07-12T04:34:14.167Z,940.1
2017-07-12T04:35:22.259Z,940.1
2017-07-12T04:36:30.400Z,940.1
2017-07-12T04:37:38.484Z,940.1
2017-07-12T04:38:46.519Z,940.1
2017-07-12T04:39:54.614Z,940.1
2017-07-12T04:41:02.703Z,940.2
2017-07-12T04:42:10.794Z,940.2
2017-07-12T04:43:18.938Z,940.1
2017-07-12T04:44:27.054Z,940.1
2017-07-12T04:45:35.227Z,940.1
2017-07-12T04:46:43.335Z,940.1
2017-07-12T04:47:51.234Z,940.1
2017-07-12T04:48:59.442Z,940.1
2017-07-12T04:50:07.409Z,940.1
2017-07-12T04:51:15.549Z,940.1
2017-07-12T04:52:23.588Z,940.1
2017-07-12T04:53:31.677Z,940.1
2017-07-12T04:54:39.819Z,940.0
2017-07-12T04:55:47.850Z,940.1
2017-07-12T04:56:55.937Z,940.0
2017-07-12T04:58:04.026Z,940.0
2017-07-12T04:59:12.116Z,940.0
2017-07-12T05:00:20.261Z,940.0
2017-07-12T05:01:28.427Z,940.0
2017-07-12T05:02:36.508Z,940.1
2017-07-12T05:03:44.467Z,940.1
2017-07-12T05:04:52.804Z,940.1
2017-07-12T05:06:00.698Z,940.1
2017-07-12T05:07:09.353Z,940.0
2017-07-12T05:08:16.818Z,940.0
2017-07-12T05:09:24.907Z,940.0
2017-07-12T05:10:32.995Z,939.9
2017-07-12T05:11:41.139Z,940.0
2017-07-12T05:12:49.171Z,940.0
2017-07-12T05:13:57.261Z,940.0
2017-07-12T05:15:05.348Z,940.0
2017-07-12T05:16:13.436Z,940.0
2017-07-12T05:17:21.644Z,940.1
2017-07-12T05:18:29.707Z,940.1
2017-07-12T05:19:37.807Z,940.1
2017-07-12T05:20:45.845Z,940.0
2017-07-12T05:21:53.877Z,940.0
2017-07-12T05:23:02.021Z,940.1
2017-07-12T05:24:10.053Z,940.1
2017-07-12T05:25:18.141Z,940.1
2017-07-12T05:26:26.231Z,940.2
2017-07-12T05:27:34.319Z,940.2
2017-07-12T05:28:42.527Z,940.2
2017-07-12T05:29:50.687Z,940.1
2017-07-12T05:30:58.583Z,940.1
2017-07-12T05:32:06.673Z,940.1
2017-07-12T05:33:14.760Z,940.1
2017-07-12T05:34:22.907Z,940.1
2017-07-12T05:35:30.957Z,940.2
2017-07-12T05:36:39.202Z,940.2
2017-07-12T05:37:47.114Z,940.1
2017-07-12T05:38:55.200Z,940.1
2017-07-12T05:40:03.408Z,940.1
2017-07-12T05:41:11.376Z,940.1
2017-07-12T05:42:19.472Z,940.1
2017-07-12T05:43:27.555Z,940.0
2017-07-12T05:44:35.642Z,940.0
2017-07-12T05:45:43.786Z,940.1
2017-07-12T05:46:51.816Z,940.1
2017-07-12T05:47:59.904Z,940.1
2017-07-12T05:49:07.992Z,940.0
2017-07-12T05:50:16.082Z,940.1
2017-07-12T05:51:24.288Z,940.0
2017-07-12T05:52:32.482Z,940.0
2017-07-12T05:53:40.512Z,940.0
2017-07-12T05:54:48.434Z,940.0
2017-07-12T05:55:56.519Z,940.0
2017-07-12T05:57:04.664Z,940.0
2017-07-12T05:58:12.698Z,940.0
2017-07-12T05:59:20.824Z,940.0
2017-07-12T06:00:28.871Z,940.0
2017-07-12T06:01:36.962Z,940.0
2017-07-12T06:02:45.169Z,940.0
2017-07-12T06:03:53.138Z,940.0
2017-07-12T06:05:01.222Z,940.0
2017-07-12T06:06:09.313Z,940.0
2017-07-12T06:07:17.401Z,940.0
2017-07-12T06:08:25.609Z,940.0
2017-07-12T06:09:33.597Z,940.0
2017-07-12T06:10:41.785Z,940.0
2017-07-12T06:11:49.754Z,940.0
2017-07-12T06:12:57.844Z,940.1
2017-07-12T06:14:05.988Z,940.1
2017-07-12T06:15:14.019Z,940.1
2017-07-12T06:16:22.106Z,940.2
2017-07-12T06:17:30.197Z,940.1
2017-07-12T06:18:38.282Z,940.1
2017-07-12T06:19:46.493Z,940.1
2017-07-12T06:20:54.631Z,940.1
2017-07-12T06:22:02.601Z,940.1
2017-07-12T06:23:10.638Z,940.1
2017-07-12T06:24:18.783Z,940.1
2017-07-12T06:25:26.870Z,940.2
2017-07-12T06:26:34.976Z,940.1
2017-07-12T06:27:43.062Z,940.2
2017-07-12T06:28:51.081Z,940.2
2017-07-12T06:29:59.173Z,940.2
2017-07-12T06:31:07.383Z,940.2
2017-07-12T06:32:15.350Z,940.3
2017-07-12T06:33:23.445Z,940.3
2017-07-12T06:34:31.534Z,940.3
2017-07-12T06:35:39.623Z,940.3
2017-07-12T06:36:47.771Z,940.3
2017-07-12T06:37:55.922Z,940.2
2017-07-12T06:39:03.887Z,940.2
2017-07-12T06:40:12.032Z,940.2
2017-07-12T06:41:20.070Z,940.3
2017-07-12T06:42:28.208Z,940.2
2017-07-12T06:43:36.404Z,940.3
2017-07-12T06:44:44.386Z,940.3
2017-07-12T06:45:52.417Z,940.2
2017-07-12T06:47:00.506Z,940.3
2017-07-12T06:48:08.722Z,940.3
2017-07-12T06:49:16.684Z,940.2
2017-07-12T06:50:24.773Z,940.3
2017-07-12T06:51:32.859Z,940.3
2017-07-12T06:52:40.949Z,940.3
2017-07-12T06:53:49.093Z,940.3
2017-07-12T06:54:57.168Z,940.3
2017-07-12T06:56:05.271Z,940.3
2017-07-12T06:57:13.302Z,940.2
2017-07-12T06:58:21.393Z,940.3
2017-07-12T06:59:29.600Z,940.3
2017-07-12T07:00:37.585Z,940.3
2017-07-12T07:01:45.665Z,940.3
2017-07-12T07:02:53.743Z,940.2
2017-07-12T07:04:01.832Z,940.3
2017-07-12T07:05:09.975Z,940.3
2017-07-12T07:06:18.206Z,940.2
2017-07-12T07:07:26.096Z,940.3
2017-07-12T07:08:34.186Z,940.2
2017-07-12T07:09:42.274Z,940.2
2017-07-12T07:10:50.415Z,940.2
2017-07-12T07:11:58.636Z,940.2
2017-07-12T07:13:06.535Z,940.2
2017-07-12T07:14:14.623Z,940.2
2017-07-12T07:15:22.711Z,940.2
2017-07-12T07:16:30.857Z,940.2
2017-07-12T07:17:38.891Z,940.1
2017-07-12T07:18:46.983Z,940.1
2017-07-12T07:19:55.066Z,940.1
2017-07-12T07:21:03.154Z,940.1
2017-07-12T07:22:11.361Z,940.2
2017-07-12T07:23:19.329Z,940.1
2017-07-12T07:24:27.417Z,940.1
2017-07-12T07:25:35.505Z,940.1
2017-07-12T07:26:43.593Z,940.1
2017-07-12T07:27:51.741Z,940.2
2017-07-12T07:28:59.860Z,940.2
2017-07-12T07:30:07.859Z,940.1
2017-07-12T07:31:15.947Z,940.2
2017-07-12T07:32:24.036Z,940.1
2017-07-12T07:33:32.180Z,940.2
2017-07-12T07:34:40.389Z,940.2
2017-07-12T07:35:48.301Z,940.2
2017-07-12T07:36:56.389Z,940.1
2017-07-12T07:38:04.477Z,940.0
2017-07-12T07:39:12.690Z,940.0
2017-07-12T07:40:20.805Z,940.1
2017-07-12T07:41:28.746Z,940.0
2017-07-12T07:42:36.835Z,940.0
2017-07-12T07:43:44.981Z,940.0
2017-07-12T07:44:53.070Z,940.0
2017-07-12T07:46:01.101Z,940.0
2017-07-12T07:47:09.188Z,940.0
2017-07-12T07:48:17.278Z,940.0
2017-07-12T07:49:25.367Z,940.0
2017-07-12T07:50:33.510Z,940.0
2017-07-12T07:51:41.554Z,940.0
2017-07-12T07:52:49.628Z,940.0
2017-07-12T07:53:57.717Z,940.0
2017-07-12T07:55:05.805Z,940.0
2017-07-12T07:56:14.014Z,940.0
2017-07-12T07:57:22.099Z,940.0
2017-07-12T07:58:30.072Z,939.9
2017-07-12T07:59:38.213Z,940.0
2017-07-12T08:00:46.247Z,940.0
2017-07-12T08:01:54.393Z,940.0
2017-07-12T08:03:02.423Z,940.0
2017-07-12T08:04:10.511Z,939.9
2017-07-12T08:05:18.650Z,940.0
2017-07-12T08:06:26.689Z,940.0
2017-07-12T08:07:35.018Z,940.0
2017-07-12T08:08:42.869Z,940.0
2017-07-12T08:09:50.957Z,940.0
2017-07-12T08:10:59.045Z,940.0
2017-07-12T08:12:07.134Z,940.0
2017-07-12T08:13:15.344Z,940.0
2017-07-12T08:14:23.377Z,940.0
2017-07-12T08:15:31.456Z,940.0
2017-07-12T08:16:39.490Z,940.0
2017-07-12T08:17:47.576Z,940.0
2017-07-12T08:18:55.785Z,940.0
2017-07-12T08:20:03.750Z,939.9
2017-07-12T08:21:11.838Z,940.0
2017-07-12T08:22:19.925Z,940.0
2017-07-12T08:23:28.038Z,940.0
2017-07-12T08:24:36.233Z,940.0
2017-07-12T08:25:44.359Z,940.0
2017-07-12T08:26:52.281Z,940.0
2017-07-12T08:28:00.367Z,940.0
2017-07-12T08:29:08.457Z,940.0
2017-07-12T08:30:16.598Z,940.0
2017-07-12T08:31:24.871Z,940.1
2017-07-12T08:32:32.718Z,940.1
2017-07-12T08:33:40.807Z,940.0
2017-07-12T08:34:48.897Z,940.0
2017-07-12T08:35:57.044Z,940.1
2017-07-12T08:37:05.074Z,940.1
2017-07-12T08:38:13.158Z,940.1
2017-07-12T08:39:21.246Z,940.0
2017-07-12T08:40:29.333Z,940.1
2017-07-12T08:41:37.480Z,940.0
2017-07-12T08:42:45.522Z,940.1
2017-07-12T08:43:53.602Z,940.1
2017-07-12T08:45:01.686Z,940.1
2017-07-12T08:46:09.779Z,940.1
2017-07-12T08:47:17.985Z,940.2
2017-07-12T08:48:26.052Z,940.2
2017-07-12T08:49:34.040Z,940.2
2017-07-12T08:50:42.127Z,940.2
2017-07-12T08:51:50.217Z,940.2
2017-07-12T08:52:58.362Z,940.2
2017-07-12T08:54:06.393Z,940.1
2017-07-12T08:55:14.484Z,940.2
2017-07-12T08:56:22.571Z,940.2
2017-07-12T08:57:30.660Z,940.2
2017-07-12T08:58:38.974Z,940.2
2017-07-12T08:59:46.901Z,940.2
2017-07-12T09:00:54.922Z,940.1
2017-07-12T09:02:03.011Z,940.1
2017-07-12T09:03:11.222Z,940.1
2017-07-12T09:04:19.242Z,940.1
2017-07-12T09:05:27.278Z,940.1
2017-07-12T09:06:35.364Z,940.1
2017-07-12T09:07:43.453Z,940.1
2017-07-12T09:08:51.541Z,940.1
2017-07-12T09:09:59.685Z,940.1
2017-07-12T09:11:07.715Z,940.0
2017-07-12T09:12:15.805Z,940.1
2017-07-12T09:13:23.893Z,940.1
2017-07-12T09:14:31.981Z,940.1
2017-07-12T09:15:40.237Z,940.1
2017-07-12T09:16:48.213Z,940.0
2017-07-12T09:17:56.246Z,940.0
2017-07-12T09:19:04.392Z,940.0
2017-07-12T09:20:12.429Z,940.0
2017-07-12T09:21:20.571Z,940.0
2017-07-12T09:22:28.652Z,940.0
2017-07-12T09:23:36.695Z,940.1
2017-07-12T09:33:49.572Z,939.9
2017-07-12T09:34:57.640Z,939.8
2017-07-12T09:36:05.679Z,939.8
2017-07-12T09:37:13.756Z,939.9
2017-07-12T09:38:21.902Z,939.8
2017-07-12T09:39:29.997Z,939.9
2017-07-12T09:40:38.024Z,939.9
2017-07-12T09:41:46.112Z,939.9
2017-07-12T09:42:54.201Z,940.0
2017-07-12T09:44:02.348Z,939.9
2017-07-12T09:45:10.378Z,939.9
2017-07-12T09:46:18.466Z,939.9
2017-07-12T09:47:26.552Z,939.8
2017-07-12T09:48:34.641Z,939.9
2017-07-12T09:49:42.936Z,939.8
2017-07-12T09:50:50.985Z,939.9
2017-07-12T09:51:58.906Z,939.8
2017-07-12T09:53:06.996Z,939.9
2017-07-12T09:54:15.092Z,939.9
2017-07-12T09:55:23.228Z,939.9
2017-07-12T09:56:31.260Z,939.9
2017-07-12T09:57:39.344Z,939.9
2017-07-12T09:58:47.437Z,939.9
2017-07-12T09:59:55.524Z,939.9
2017-07-12T10:01:03.733Z,939.9
2017-07-12T10:02:11.702Z,939.8
2017-07-12T10:03:19.791Z,939.9
2017-07-12T10:04:27.879Z,939.9
2017-07-12T10:05:35.966Z,939.8
2017-07-12T10:06:44.184Z,939.8
2017-07-12T10:07:52.214Z,939.7
2017-07-12T10:09:00.230Z,939.8
2017-07-12T10:10:08.320Z,939.7
2017-07-12T10:11:16.410Z,939.7
2017-07-12T10:12:24.554Z,939.8
2017-07-12T10:13:32.641Z,939.7
2017-07-12T10:14:40.675Z,939.8
2017-07-12T10:15:48.765Z,939.8
2017-07-12T10:16:56.851Z,939.7
2017-07-12T10:18:05.001Z,939.7
2017-07-12T10:19:13.029Z,939.7
2017-07-12T10:20:21.114Z,939.6
2017-07-12T10:21:29.208Z,939.8
2017-07-12T10:22:37.351Z,939.8
2017-07-12T10:23:45.605Z,939.7
2017-07-12T10:24:53.569Z,939.7
2017-07-12T10:26:01.562Z,939.9
2017-07-12T10:27:09.650Z,939.8
2017-07-12T10:28:17.739Z,939.7
2017-07-12T10:29:25.883Z,939.8
2017-07-12T10:30:33.916Z,939.7
2017-07-12T10:31:42.006Z,939.9
2017-07-12T10:32:50.093Z,939.7
2017-07-12T10:33:58.183Z,939.8
2017-07-12T10:35:06.583Z,939.8
2017-07-12T10:36:14.358Z,939.8
2017-07-12T10:37:22.447Z,939.7
2017-07-12T10:38:30.658Z,939.7
2017-07-12T10:39:38.626Z,939.7
2017-07-12T10:40:46.821Z,939.8
2017-07-12T10:41:54.862Z,939.8
2017-07-12T10:43:02.890Z,939.7
2017-07-12T10:44:10.980Z,939.7
2017-07-12T10:45:19.070Z,939.7
2017-07-12T10:46:27.277Z,939.7
2017-07-12T10:47:35.244Z,939.6
2017-07-12T10:48:43.335Z,939.7
2017-07-12T10:49:51.423Z,939.6
2017-07-12T10:50:59.510Z,939.7
2017-07-12T10:52:07.779Z,939.6
2017-07-12T10:53:15.688Z,939.6
2017-07-12T10:54:23.835Z,939.7
2017-07-12T10:55:31.874Z,939.7
2017-07-12T10:56:39.962Z,939.6
2017-07-12T10:57:48.122Z,939.7
2017-07-12T10:58:56.139Z,939.7
2017-07-12T11:00:04.228Z,939.7
2017-07-12T11:01:12.317Z,939.7
2017-07-12T11:02:20.601Z,939.6
2017-07-12T11:03:28.752Z,939.7
2017-07-12T11:04:36.583Z,939.7
2017-07-12T11:05:44.676Z,939.6
2017-07-12T11:06:52.762Z,939.7
2017-07-12T11:08:00.849Z,939.7
2017-07-12T11:09:09.142Z,939.7
2017-07-12T11:10:17.149Z,939.7
2017-07-12T11:11:25.115Z,939.6
2017-07-12T11:12:33.206Z,939.7
2017-07-12T11:13:41.294Z,939.6
2017-07-12T11:14:49.521Z,939.7
2017-07-12T11:15:57.484Z,939.6
2017-07-12T11:17:05.558Z,939.6
2017-07-12T11:18:13.646Z,939.6
2017-07-12T11:19:21.737Z,939.6
2017-07-12T11:20:29.887Z,939.6
2017-07-12T11:21:37.919Z,939.6
2017-07-12T11:22:46.009Z,939.5
2017-07-12T11:23:54.097Z,939.5
2017-07-12T11:25:02.193Z,939.5
2017-07-12T11:26:10.519Z,939.7
2017-07-12T11:27:18.370Z,939.6
2017-07-12T11:28:26.461Z,939.6
2017-07-12T11:29:34.550Z,939.5
2017-07-12T11:30:42.636Z,939.5
2017-07-12T11:31:50.859Z,939.6
2017-07-12T11:32:58.850Z,939.6
2017-07-12T11:34:06.903Z,939.5
2017-07-12T11:35:14.995Z,939.5
2017-07-12T11:36:23.087Z,939.5
2017-07-12T11:37:31.231Z,939.5
2017-07-12T11:38:39.266Z,939.5
2017-07-12T11:39:47.354Z,939.5
2017-07-12T11:40:55.440Z,939.5
2017-07-12T11:42:03.590Z,939.5
2017-07-12T11:43:11.794Z,939.5
2017-07-12T11:44:19.711Z,939.4
2017-07-12T11:45:27.804Z,939.4
2017-07-12T11:46:35.896Z,939.4
2017-07-12T11:47:43.984Z,939.4
2017-07-12T11:48:52.128Z,939.4
2017-07-12T11:50:00.161Z,939.3
2017-07-12T11:51:08.250Z,939.4
2017-07-12T11:52:16.341Z,939.4
2017-07-12T11:53:24.576Z,939.4
2017-07-12T11:54:32.741Z,939.3
2017-07-12T11:55:40.608Z,939.4
2017-07-12T11:56:48.696Z,939.4
2017-07-12T11:57:56.904Z,939.4
2017-07-12T11:59:04.873Z,939.4
2017-07-12T12:00:13.070Z,939.4
2017-07-12T12:01:21.050Z,939.5
2017-07-12T12:02:29.138Z,939.5
2017-07-12T12:03:37.229Z,939.5
2017-07-12T12:04:45.319Z,939.6
2017-07-12T12:05:53.528Z,939.5
2017-07-12T12:07:01.494Z,939.5
2017-07-12T12:08:09.583Z,939.5
2017-07-12T12:09:17.678Z,939.5
2017-07-12T12:10:25.883Z,939.5
2017-07-12T12:11:34.095Z,939.6
2017-07-12T12:12:41.945Z,939.5
2017-07-12T12:13:50.090Z,939.5
2017-07-12T12:14:58.128Z,939.5
2017-07-12T12:16:06.219Z,939.6
2017-07-12T12:17:14.363Z,939.5
2017-07-12T12:18:22.396Z,939.5
2017-07-12T12:19:30.494Z,939.5
2017-07-12T12:20:38.582Z,939.6
2017-07-12T12:21:46.840Z,939.5
2017-07-12T12:22:54.817Z,939.5
2017-07-12T12:24:02.855Z,939.5
2017-07-12T12:25:10.946Z,939.5
2017-07-12T12:26:19.035Z,939.5
2017-07-12T12:27:27.124Z,939.5
2017-07-12T12:28:35.335Z,939.5
2017-07-12T12:29:43.360Z,939.5
2017-07-12T12:30:51.388Z,939.5
2017-07-12T12:31:59.476Z,939.5
2017-07-12T12:33:07.568Z,939.6
2017-07-12T12:34:15.714Z,939.6
2017-07-12T12:35:23.745Z,939.6
2017-07-12T12:36:31.834Z,939.5
2017-07-12T12:37:39.925Z,939.6
2017-07-12T12:38:48.102Z,939.6
2017-07-12T12:39:56.223Z,939.6
2017-07-12T12:41:04.190Z,939.6
2017-07-12T12:42:12.279Z,939.7
2017-07-12T12:43:20.370Z,939.6
2017-07-12T12:44:28.458Z,939.6
2017-07-12T12:45:36.604Z,939.6
2017-07-12T12:46:44.651Z,939.6
2017-07-12T12:47:52.725Z,939.6
2017-07-12T12:49:00.936Z,939.7
2017-07-12T12:50:09.032Z,939.7
2017-07-12T12:51:17.111Z,939.7
2017-07-12T12:52:25.081Z,939.7
2017-07-12T12:53:33.169Z,939.6
2017-07-12T12:54:41.260Z,939.6
2017-07-12T12:55:49.364Z,939.7
2017-07-12T12:56:57.494Z,939.6
2017-07-12T12:58:05.526Z,939.6
2017-07-12T12:59:13.616Z,939.8
2017-07-12T13:00:21.704Z,939.7
2017-07-12T13:01:29.913Z,939.8
2017-07-12T13:02:37.937Z,939.8
2017-07-12T13:03:45.970Z,939.7
2017-07-12T13:04:54.058Z,939.7
2017-07-12T13:06:02.150Z,939.7
2017-07-12T13:07:10.243Z,939.6
2017-07-12T13:08:18.446Z,939.6
2017-07-12T13:09:26.422Z,939.7
2017-07-12T13:10:34.513Z,939.7
2017-07-12T13:11:42.602Z,939.7
2017-07-12T13:12:50.692Z,939.8
2017-07-12T13:13:58.836Z,939.8
2017-07-12T13:15:06.877Z,939.7
2017-07-12T13:16:14.966Z,939.7
2017-07-12T13:17:23.339Z,939.6
2017-07-12T13:18:31.145Z,939.7
2017-07-12T13:19:39.286Z,939.6
2017-07-12T13:20:47.320Z,939.9
2017-07-12T13:21:55.410Z,939.7
2017-07-12T13:23:03.572Z,939.6
2017-07-12T13:24:11.658Z,939.8
2017-07-12T13:25:19.796Z,939.7
2017-07-12T13:26:27.766Z,939.7
2017-07-12T13:27:35.854Z,939.7
2017-07-12T13:28:43.941Z,939.7
2017-07-12T13:29:52.048Z,939.7
2017-07-12T13:31:00.240Z,939.7
2017-07-12T13:32:08.209Z,939.6
2017-07-12T13:33:16.355Z,939.6
2017-07-12T13:34:24.389Z,939.7
2017-07-12T13:35:32.477Z,939.7
2017-07-12T13:36:40.685Z,939.7
2017-07-12T13:37:48.655Z,939.7
2017-07-12T13:38:56.743Z,939.7
2017-07-12T13:40:04.946Z,939.8
2017-07-12T13:41:13.070Z,939.7
2017-07-12T13:42:21.068Z,939.7
2017-07-12T13:43:29.107Z,939.8
2017-07-12T13:44:37.190Z,939.7
2017-07-12T13:45:45.280Z,939.8
2017-07-12T13:46:53.467Z,939.7
2017-07-12T13:48:01.577Z,939.7
2017-07-12T13:49:09.601Z,939.8
2017-07-12T13:50:17.635Z,939.8
2017-07-12T13:51:25.727Z,939.8
2017-07-12T13:52:33.812Z,939.7
2017-07-12T13:53:41.959Z,939.7
2017-07-12T13:54:49.992Z,939.8
2017-07-12T13:55:58.080Z,939.8
2017-07-12T13:57:06.230Z,939.8
2017-07-12T13:58:14.435Z,939.7
2017-07-12T13:59:22.413Z,939.8
2017-07-12T14:00:30.444Z,939.8
2017-07-12T14:01:38.535Z,939.7
2017-07-12T14:02:46.624Z,939.7
2017-07-12T14:03:54.808Z,939.7
2017-07-12T14:05:02.919Z,939.8
2017-07-12T14:06:10.888Z,939.8
2017-07-12T14:07:18.977Z,939.8
2017-07-12T14:08:27.067Z,939.8
2017-07-12T14:09:35.157Z,939.7
2017-07-12T14:10:43.304Z,939.7
2017-07-12T14:11:51.337Z,939.7
2017-07-12T14:12:59.423Z,939.7
2017-07-12T14:14:07.514Z,939.7
2017-07-12T14:15:15.602Z,939.9
2017-07-12T14:16:23.749Z,939.8
2017-07-12T14:17:31.778Z,939.8
2017-07-12T14:18:39.869Z,939.8
2017-07-12T14:19:47.959Z,939.8
2017-07-12T14:20:56.268Z,939.9
2017-07-12T14:22:04.194Z,939.9
2017-07-12T14:23:12.225Z,939.9
2017-07-12T14:24:20.317Z,939.9
2017-07-12T14:25:28.404Z,939.9
2017-07-12T14:26:36.491Z,939.9
2017-07-12T14:27:44.703Z,939.9
2017-07-12T14:28:52.672Z,940.0
2017-07-12T14:30:00.980Z,940.0
2017-07-12T14:31:09.010Z,940.0
2017-07-12T14:32:17.102Z,939.8
2017-07-12T14:33:25.085Z,939.8
2017-07-12T14:34:33.117Z,939.9
2017-07-12T14:35:41.207Z,939.9
2017-07-12T14:36:49.416Z,939.9
2017-07-12T14:37:57.427Z,940.0
2017-07-12T14:39:05.609Z,940.0
2017-07-12T14:40:13.562Z,940.0
2017-07-12T14:41:21.651Z,940.0
2017-07-12T14:42:29.741Z,940.0
2017-07-12T14:43:37.830Z,940.0
2017-07-12T14:44:45.973Z,940.0
2017-07-12T14:45:54.007Z,940.0
2017-07-12T14:47:02.102Z,940.0